sensor_id;sensor_type;location;lat;lon;timestamp;P1;durP1;ratioP1;P2;durP2;ratioP2
49998;SDS011;68071;45.062;7.356;2024-01-15T00:00:41;11.85;;;7.65;;
49998;SDS011;68071;45.062;7.356;2024-01-15T00:03:49;14.90;;;9.00;;
49998;SDS011;68071;45.062;7.356;2024-01-15T00:06:54;15.43;;;9.45;;
49998;SDS011;68071;45.062;7.356;2024-01-15T00:09:59;17.27;;;10.63;;
49998;SDS011;68071;45.062;7.356;2024-01-15T00:13:03;14.38;;;8.85;;
49998;SDS011;68071;45.062;7.356;2024-01-15T00:16:07;16.58;;;9.18;;
49998;SDS011;68071;45.062;7.356;2024-01-15T00:19:12;18.77;;;10.32;;
49998;SDS011;68071;45.062;7.356;2024-01-15T00:22:16;17.03;;;11.00;;
49998;SDS011;68071;45.062;7.356;2024-01-15T00:25:20;17.95;;;9.50;;
49998;SDS011;68071;45.062;7.356;2024-01-15T00:28:25;11.93;;;7.32;;
49998;SDS011;68071;45.062;7.356;2024-01-15T00:31:29;16.33;;;10.38;;
49998;SDS011;68071;45.062;7.356;2024-01-15T00:34:33;27.63;;;15.07;;
49998;SDS011;68071;45.062;7.356;2024-01-15T00:37:37;19.08;;;9.25;;
49998;SDS011;68071;45.062;7.356;2024-01-15T00:40:41;24.65;;;13.05;;
49998;SDS011;68071;45.062;7.356;2024-01-15T00:43:45;17.52;;;10.70;;
49998;SDS011;68071;45.062;7.356;2024-01-15T00:46:49;15.82;;;9.43;;
49998;SDS011;68071;45.062;7.356;2024-01-15T00:49:54;23.80;;;14.95;;
49998;SDS011;68071;45.062;7.356;2024-01-15T00:52:58;19.13;;;10.30;;
49998;SDS011;68071;45.062;7.356;2024-01-15T00:56:02;18.67;;;10.15;;
49998;SDS011;68071;45.062;7.356;2024-01-15T00:59:06;11.45;;;7.82;;
49998;SDS011;68071;45.062;7.356;2024-01-15T01:02:16;17.63;;;10.38;;
49998;SDS011;68071;45.062;7.356;2024-01-15T01:05:20;16.45;;;8.60;;
49998;SDS011;68071;45.062;7.356;2024-01-15T01:08:24;22.13;;;13.23;;
49998;SDS011;68071;45.062;7.356;2024-01-15T01:11:28;21.92;;;12.07;;
49998;SDS011;68071;45.062;7.356;2024-01-15T01:14:33;12.35;;;8.55;;
49998;SDS011;68071;45.062;7.356;2024-01-15T01:17:37;17.63;;;10.00;;
49998;SDS011;68071;45.062;7.356;2024-01-15T01:20:42;18.30;;;12.63;;
49998;SDS011;68071;45.062;7.356;2024-01-15T01:23:46;24.02;;;15.48;;
49998;SDS011;68071;45.062;7.356;2024-01-15T01:26:50;14.38;;;9.57;;
49998;SDS011;68071;45.062;7.356;2024-01-15T01:29:54;15.25;;;9.20;;
49998;SDS011;68071;45.062;7.356;2024-01-15T01:32:58;18.73;;;12.02;;
49998;SDS011;68071;45.062;7.356;2024-01-15T01:36:06;16.90;;;10.20;;
49998;SDS011;68071;45.062;7.356;2024-01-15T01:39:12;13.13;;;9.00;;
49998;SDS011;68071;45.062;7.356;2024-01-15T01:42:22;17.42;;;12.05;;
49998;SDS011;68071;45.062;7.356;2024-01-15T01:45:26;18.98;;;13.15;;
49998;SDS011;68071;45.062;7.356;2024-01-15T01:48:30;12.13;;;8.35;;
49998;SDS011;68071;45.062;7.356;2024-01-15T01:51:35;11.37;;;7.67;;
49998;SDS011;68071;45.062;7.356;2024-01-15T01:54:50;13.10;;;9.03;;
49998;SDS011;68071;45.062;7.356;2024-01-15T01:57:56;15.30;;;10.63;;
49998;SDS011;68071;45.062;7.356;2024-01-15T02:01:00;13.45;;;9.15;;
49998;SDS011;68071;45.062;7.356;2024-01-15T02:04:07;12.75;;;8.75;;
49998;SDS011;68071;45.062;7.356;2024-01-15T02:07:12;12.95;;;6.75;;
49998;SDS011;68071;45.062;7.356;2024-01-15T02:10:23;12.07;;;7.45;;
49998;SDS011;68071;45.062;7.356;2024-01-15T02:13:28;14.73;;;9.40;;
49998;SDS011;68071;45.062;7.356;2024-01-15T02:16:32;18.13;;;11.75;;
49998;SDS011;68071;45.062;7.356;2024-01-15T02:19:36;13.60;;;8.18;;
49998;SDS011;68071;45.062;7.356;2024-01-15T02:22:41;19.10;;;13.63;;
49998;SDS011;68071;45.062;7.356;2024-01-15T02:25:46;23.30;;;13.00;;
49998;SDS011;68071;45.062;7.356;2024-01-15T02:28:50;16.08;;;11.25;;
49998;SDS011;68071;45.062;7.356;2024-01-15T02:31:55;14.65;;;9.02;;
49998;SDS011;68071;45.062;7.356;2024-01-15T02:34:59;11.48;;;8.15;;
49998;SDS011;68071;45.062;7.356;2024-01-15T02:38:03;18.63;;;11.52;;
49998;SDS011;68071;45.062;7.356;2024-01-15T02:41:07;16.85;;;11.20;;
49998;SDS011;68071;45.062;7.356;2024-01-15T02:44:11;14.43;;;9.45;;
49998;SDS011;68071;45.062;7.356;2024-01-15T02:47:16;13.93;;;8.73;;
49998;SDS011;68071;45.062;7.356;2024-01-15T02:50:20;18.98;;;11.20;;
49998;SDS011;68071;45.062;7.356;2024-01-15T02:53:24;17.17;;;10.88;;
49998;SDS011;68071;45.062;7.356;2024-01-15T02:56:28;19.60;;;12.93;;
49998;SDS011;68071;45.062;7.356;2024-01-15T02:59:32;15.93;;;11.55;;
49998;SDS011;68071;45.062;7.356;2024-01-15T03:02:36;14.32;;;9.82;;
49998;SDS011;68071;45.062;7.356;2024-01-15T03:05:43;17.05;;;10.93;;
49998;SDS011;68071;45.062;7.356;2024-01-15T03:08:47;15.07;;;9.60;;
49998;SDS011;68071;45.062;7.356;2024-01-15T03:11:51;17.52;;;12.32;;
49998;SDS011;68071;45.062;7.356;2024-01-15T03:14:54;19.25;;;11.13;;
49998;SDS011;68071;45.062;7.356;2024-01-15T03:17:58;17.90;;;12.10;;
49998;SDS011;68071;45.062;7.356;2024-01-15T03:21:02;12.68;;;7.82;;
49998;SDS011;68071;45.062;7.356;2024-01-15T03:24:06;20.50;;;9.75;;
49998;SDS011;68071;45.062;7.356;2024-01-15T03:27:10;12.02;;;7.68;;
49998;SDS011;68071;45.062;7.356;2024-01-15T03:30:15;11.37;;;8.00;;
49998;SDS011;68071;45.062;7.356;2024-01-15T03:33:19;16.35;;;9.75;;
49998;SDS011;68071;45.062;7.356;2024-01-15T03:36:23;17.48;;;10.73;;
49998;SDS011;68071;45.062;7.356;2024-01-15T03:39:28;19.17;;;13.10;;
49998;SDS011;68071;45.062;7.356;2024-01-15T03:42:32;18.88;;;8.63;;
49998;SDS011;68071;45.062;7.356;2024-01-15T03:45:36;16.60;;;8.68;;
49998;SDS011;68071;45.062;7.356;2024-01-15T03:48:41;15.10;;;8.73;;
49998;SDS011;68071;45.062;7.356;2024-01-15T03:51:44;16.35;;;10.82;;
49998;SDS011;68071;45.062;7.356;2024-01-15T03:54:49;15.00;;;8.15;;
49998;SDS011;68071;45.062;7.356;2024-01-15T03:57:53;13.02;;;7.65;;
49998;SDS011;68071;45.062;7.356;2024-01-15T04:00:57;13.50;;;6.82;;
49998;SDS011;68071;45.062;7.356;2024-01-15T04:04:02;12.77;;;7.53;;
49998;SDS011;68071;45.062;7.356;2024-01-15T04:07:06;13.07;;;8.10;;
49998;SDS011;68071;45.062;7.356;2024-01-15T04:10:10;11.98;;;8.90;;
49998;SDS011;68071;45.062;7.356;2024-01-15T04:13:15;18.17;;;11.50;;
49998;SDS011;68071;45.062;7.356;2024-01-15T04:16:19;15.40;;;9.40;;
49998;SDS011;68071;45.062;7.356;2024-01-15T04:19:23;17.48;;;11.65;;
49998;SDS011;68071;45.062;7.356;2024-01-15T04:22:27;15.85;;;9.63;;
49998;SDS011;68071;45.062;7.356;2024-01-15T04:25:32;13.35;;;7.75;;
49998;SDS011;68071;45.062;7.356;2024-01-15T04:28:36;19.80;;;12.05;;
49998;SDS011;68071;45.062;7.356;2024-01-15T04:31:41;19.50;;;12.40;;
49998;SDS011;68071;45.062;7.356;2024-01-15T04:34:44;15.73;;;10.25;;
49998;SDS011;68071;45.062;7.356;2024-01-15T04:37:49;13.48;;;9.65;;
49998;SDS011;68071;45.062;7.356;2024-01-15T04:40:53;20.63;;;12.82;;
49998;SDS011;68071;45.062;7.356;2024-01-15T04:43:57;16.33;;;10.63;;
49998;SDS011;68071;45.062;7.356;2024-01-15T04:47:01;15.63;;;10.38;;
49998;SDS011;68071;45.062;7.356;2024-01-15T04:50:05;15.23;;;7.80;;
49998;SDS011;68071;45.062;7.356;2024-01-15T04:53:09;14.48;;;9.15;;
49998;SDS011;68071;45.062;7.356;2024-01-15T04:56:13;20.48;;;13.27;;
49998;SDS011;68071;45.062;7.356;2024-01-15T04:59:17;28.05;;;14.07;;
49998;SDS011;68071;45.062;7.356;2024-01-15T05:02:21;18.67;;;9.65;;
49998;SDS011;68071;45.062;7.356;2024-01-15T05:05:26;16.70;;;10.15;;
49998;SDS011;68071;45.062;7.356;2024-01-15T05:08:30;19.45;;;12.43;;
49998;SDS011;68071;45.062;7.356;2024-01-15T05:11:33;19.92;;;12.30;;
49998;SDS011;68071;45.062;7.356;2024-01-15T05:14:38;18.80;;;11.75;;
49998;SDS011;68071;45.062;7.356;2024-01-15T05:17:41;24.95;;;15.23;;
49998;SDS011;68071;45.062;7.356;2024-01-15T05:20:45;16.80;;;10.98;;
49998;SDS011;68071;45.062;7.356;2024-01-15T05:23:49;17.17;;;12.23;;
49998;SDS011;68071;45.062;7.356;2024-01-15T05:26:54;13.15;;;8.85;;
49998;SDS011;68071;45.062;7.356;2024-01-15T05:29:57;17.40;;;11.77;;
49998;SDS011;68071;45.062;7.356;2024-01-15T05:33:01;15.45;;;10.60;;
49998;SDS011;68071;45.062;7.356;2024-01-15T05:36:06;16.10;;;9.83;;
49998;SDS011;68071;45.062;7.356;2024-01-15T05:39:11;13.68;;;10.68;;
49998;SDS011;68071;45.062;7.356;2024-01-15T05:42:15;16.52;;;11.75;;
49998;SDS011;68071;45.062;7.356;2024-01-15T05:45:19;15.65;;;10.32;;
49998;SDS011;68071;45.062;7.356;2024-01-15T05:48:23;17.42;;;12.05;;
49998;SDS011;68071;45.062;7.356;2024-01-15T05:51:27;21.63;;;12.20;;
49998;SDS011;68071;45.062;7.356;2024-01-15T05:54:33;15.43;;;12.20;;
49998;SDS011;68071;45.062;7.356;2024-01-15T05:57:37;21.20;;;12.50;;
49998;SDS011;68071;45.062;7.356;2024-01-15T06:00:50;18.88;;;14.20;;
49998;SDS011;68071;45.062;7.356;2024-01-15T06:03:54;15.45;;;9.60;;
49998;SDS011;68071;45.062;7.356;2024-01-15T06:06:58;15.52;;;10.13;;
49998;SDS011;68071;45.062;7.356;2024-01-15T06:10:01;17.38;;;9.90;;
49998;SDS011;68071;45.062;7.356;2024-01-15T06:13:06;13.17;;;9.10;;
49998;SDS011;68071;45.062;7.356;2024-01-15T06:16:13;18.77;;;8.60;;
49998;SDS011;68071;45.062;7.356;2024-01-15T06:19:20;17.08;;;11.43;;
49998;SDS011;68071;45.062;7.356;2024-01-15T06:22:23;14.27;;;10.15;;
49998;SDS011;68071;45.062;7.356;2024-01-15T06:25:27;20.27;;;14.50;;
49998;SDS011;68071;45.062;7.356;2024-01-15T06:28:31;16.42;;;10.75;;
49998;SDS011;68071;45.062;7.356;2024-01-15T06:31:35;18.70;;;7.75;;
49998;SDS011;68071;45.062;7.356;2024-01-15T06:34:39;19.40;;;13.90;;
49998;SDS011;68071;45.062;7.356;2024-01-15T06:37:43;18.90;;;13.57;;
49998;SDS011;68071;45.062;7.356;2024-01-15T06:40:51;18.90;;;13.38;;
49998;SDS011;68071;45.062;7.356;2024-01-15T06:43:55;19.70;;;12.70;;
49998;SDS011;68071;45.062;7.356;2024-01-15T06:50:43;24.65;;;14.10;;
49998;SDS011;68071;45.062;7.356;2024-01-15T06:53:47;16.35;;;9.32;;
49998;SDS011;68071;45.062;7.356;2024-01-15T06:56:51;18.05;;;11.63;;
49998;SDS011;68071;45.062;7.356;2024-01-15T06:59:55;34.72;;;22.58;;
49998;SDS011;68071;45.062;7.356;2024-01-15T07:02:59;18.70;;;11.55;;
49998;SDS011;68071;45.062;7.356;2024-01-15T07:06:04;16.45;;;9.13;;
49998;SDS011;68071;45.062;7.356;2024-01-15T07:09:08;38.22;;;23.42;;
49998;SDS011;68071;45.062;7.356;2024-01-15T07:12:12;24.13;;;13.90;;
49998;SDS011;68071;45.062;7.356;2024-01-15T07:15:23;31.67;;;18.88;;
49998;SDS011;68071;45.062;7.356;2024-01-15T07:18:27;23.98;;;15.75;;
49998;SDS011;68071;45.062;7.356;2024-01-15T07:21:31;43.15;;;19.60;;
49998;SDS011;68071;45.062;7.356;2024-01-15T07:24:36;17.08;;;10.27;;
49998;SDS011;68071;45.062;7.356;2024-01-15T07:27:40;44.17;;;23.50;;
49998;SDS011;68071;45.062;7.356;2024-01-15T07:30:47;45.58;;;23.58;;
49998;SDS011;68071;45.062;7.356;2024-01-15T07:38:32;20.08;;;12.27;;
49998;SDS011;68071;45.062;7.356;2024-01-15T07:41:36;25.42;;;15.43;;
49998;SDS011;68071;45.062;7.356;2024-01-15T07:44:42;17.02;;;11.48;;
49998;SDS011;68071;45.062;7.356;2024-01-15T07:47:45;19.70;;;15.75;;
49998;SDS011;68071;45.062;7.356;2024-01-15T07:50:49;13.80;;;9.32;;
49998;SDS011;68071;45.062;7.356;2024-01-15T07:53:53;17.17;;;9.75;;
49998;SDS011;68071;45.062;7.356;2024-01-15T07:56:59;12.33;;;7.00;;
49998;SDS011;68071;45.062;7.356;2024-01-15T08:00:04;11.55;;;7.05;;
49998;SDS011;68071;45.062;7.356;2024-01-15T08:03:09;12.95;;;7.63;;
49998;SDS011;68071;45.062;7.356;2024-01-15T08:06:13;12.10;;;6.97;;
49998;SDS011;68071;45.062;7.356;2024-01-15T08:09:27;14.07;;;9.68;;
49998;SDS011;68071;45.062;7.356;2024-01-15T08:12:34;11.75;;;6.70;;
49998;SDS011;68071;45.062;7.356;2024-01-15T08:15:42;12.95;;;6.88;;
49998;SDS011;68071;45.062;7.356;2024-01-15T08:18:46;13.20;;;7.90;;
49998;SDS011;68071;45.062;7.356;2024-01-15T08:21:50;12.60;;;7.47;;
49998;SDS011;68071;45.062;7.356;2024-01-15T08:24:55;12.50;;;7.45;;
49998;SDS011;68071;45.062;7.356;2024-01-15T08:27:59;10.60;;;7.50;;
49998;SDS011;68071;45.062;7.356;2024-01-15T08:31:03;17.77;;;15.98;;
49998;SDS011;68071;45.062;7.356;2024-01-15T08:34:08;14.43;;;7.80;;
49998;SDS011;68071;45.062;7.356;2024-01-15T08:37:19;14.75;;;6.53;;
49998;SDS011;68071;45.062;7.356;2024-01-15T08:40:23;12.15;;;7.53;;
49998;SDS011;68071;45.062;7.356;2024-01-15T08:43:27;11.55;;;7.60;;
49998;SDS011;68071;45.062;7.356;2024-01-15T08:46:31;13.18;;;11.90;;
49998;SDS011;68071;45.062;7.356;2024-01-15T08:49:35;14.73;;;13.23;;
49998;SDS011;68071;45.062;7.356;2024-01-15T08:52:40;14.98;;;8.63;;
49998;SDS011;68071;45.062;7.356;2024-01-15T08:55:44;14.45;;;10.25;;
49998;SDS011;68071;45.062;7.356;2024-01-15T08:58:48;16.02;;;9.13;;
49998;SDS011;68071;45.062;7.356;2024-01-15T09:01:52;19.60;;;17.58;;
49998;SDS011;68071;45.062;7.356;2024-01-15T09:04:56;18.13;;;16.33;;
49998;SDS011;68071;45.062;7.356;2024-01-15T09:08:00;13.65;;;8.88;;
49998;SDS011;68071;45.062;7.356;2024-01-15T09:11:04;17.95;;;16.20;;
49998;SDS011;68071;45.062;7.356;2024-01-15T09:14:09;21.83;;;17.02;;
49998;SDS011;68071;45.062;7.356;2024-01-15T09:17:13;16.63;;;10.88;;
49998;SDS011;68071;45.062;7.356;2024-01-15T09:20:17;14.50;;;9.05;;
49998;SDS011;68071;45.062;7.356;2024-01-15T09:23:22;13.43;;;8.50;;
49998;SDS011;68071;45.062;7.356;2024-01-15T09:26:26;18.67;;;15.50;;
49998;SDS011;68071;45.062;7.356;2024-01-15T09:29:30;18.35;;;16.55;;
49998;SDS011;68071;45.062;7.356;2024-01-15T09:32:33;18.52;;;16.65;;
49998;SDS011;68071;45.062;7.356;2024-01-15T09:35:38;17.17;;;15.10;;
49998;SDS011;68071;45.062;7.356;2024-01-15T09:38:42;16.70;;;15.00;;
49998;SDS011;68071;45.062;7.356;2024-01-15T09:41:46;16.02;;;14.43;;
49998;SDS011;68071;45.062;7.356;2024-01-15T09:44:51;12.38;;;8.02;;
49998;SDS011;68071;45.062;7.356;2024-01-15T09:47:56;10.57;;;8.05;;
49998;SDS011;68071;45.062;7.356;2024-01-15T09:51:03;11.07;;;8.40;;
49998;SDS011;68071;45.062;7.356;2024-01-15T09:54:09;12.25;;;8.60;;
49998;SDS011;68071;45.062;7.356;2024-01-15T09:57:16;18.52;;;16.63;;
49998;SDS011;68071;45.062;7.356;2024-01-15T10:00:21;17.23;;;15.50;;
49998;SDS011;68071;45.062;7.356;2024-01-15T10:03:26;13.35;;;8.35;;
49998;SDS011;68071;45.062;7.356;2024-01-15T10:06:30;18.63;;;16.58;;
49998;SDS011;68071;45.062;7.356;2024-01-15T10:09:35;20.08;;;17.98;;
49998;SDS011;68071;45.062;7.356;2024-01-15T10:12:39;19.20;;;17.25;;
49998;SDS011;68071;45.062;7.356;2024-01-15T10:15:46;19.25;;;17.23;;
49998;SDS011;68071;45.062;7.356;2024-01-15T10:18:53;21.45;;;18.50;;
49998;SDS011;68071;45.062;7.356;2024-01-15T10:21:58;15.27;;;9.27;;
49998;SDS011;68071;45.062;7.356;2024-01-15T10:25:01;12.27;;;9.13;;
49998;SDS011;68071;45.062;7.356;2024-01-15T10:28:06;17.77;;;10.43;;
49998;SDS011;68071;45.062;7.356;2024-01-15T10:31:10;19.75;;;17.50;;
49998;SDS011;68071;45.062;7.356;2024-01-15T10:34:14;19.33;;;17.35;;
49998;SDS011;68071;45.062;7.356;2024-01-15T10:37:19;19.42;;;16.58;;
49998;SDS011;68071;45.062;7.356;2024-01-15T10:40:23;18.95;;;16.95;;
49998;SDS011;68071;45.062;7.356;2024-01-15T10:43:27;20.27;;;18.05;;
49998;SDS011;68071;45.062;7.356;2024-01-15T10:46:31;18.08;;;16.27;;
49998;SDS011;68071;45.062;7.356;2024-01-15T10:49:37;20.77;;;18.67;;
49998;SDS011;68071;45.062;7.356;2024-01-15T10:52:41;21.35;;;18.50;;
49998;SDS011;68071;45.062;7.356;2024-01-15T10:55:46;20.15;;;18.20;;
49998;SDS011;68071;45.062;7.356;2024-01-15T10:58:54;18.27;;;16.40;;
49998;SDS011;68071;45.062;7.356;2024-01-15T11:02:00;20.08;;;18.17;;
49998;SDS011;68071;45.062;7.356;2024-01-15T11:05:04;19.65;;;17.55;;
49998;SDS011;68071;45.062;7.356;2024-01-15T11:08:12;18.80;;;16.80;;
49998;SDS011;68071;45.062;7.356;2024-01-15T11:11:23;18.52;;;16.73;;
49998;SDS011;68071;45.062;7.356;2024-01-15T11:14:34;19.67;;;17.58;;
49998;SDS011;68071;45.062;7.356;2024-01-15T11:18:00;21.42;;;19.08;;
49998;SDS011;68071;45.062;7.356;2024-01-15T11:30:51;23.13;;;20.50;;
49998;SDS011;68071;45.062;7.356;2024-01-15T11:33:57;23.45;;;21.05;;
49998;SDS011;68071;45.062;7.356;2024-01-15T11:37:01;24.67;;;21.13;;
49998;SDS011;68071;45.062;7.356;2024-01-15T11:40:06;22.70;;;20.30;;
49998;SDS011;68071;45.062;7.356;2024-01-15T11:43:14;22.15;;;19.95;;
49998;SDS011;68071;45.062;7.356;2024-01-15T11:46:23;22.95;;;20.55;;
49998;SDS011;68071;45.062;7.356;2024-01-15T11:53:00;22.48;;;20.08;;
49998;SDS011;68071;45.062;7.356;2024-01-15T11:56:06;22.80;;;19.75;;
49998;SDS011;68071;45.062;7.356;2024-01-15T11:59:18;23.17;;;20.77;;
49998;SDS011;68071;45.062;7.356;2024-01-15T12:02:22;24.95;;;22.30;;
49998;SDS011;68071;45.062;7.356;2024-01-15T12:05:27;24.02;;;21.73;;
49998;SDS011;68071;45.062;7.356;2024-01-15T12:08:31;22.52;;;20.25;;
49998;SDS011;68071;45.062;7.356;2024-01-15T12:11:35;25.35;;;21.80;;
49998;SDS011;68071;45.062;7.356;2024-01-15T12:14:41;23.67;;;21.33;;
49998;SDS011;68071;45.062;7.356;2024-01-15T12:17:45;22.92;;;20.52;;
49998;SDS011;68071;45.062;7.356;2024-01-15T12:20:52;22.55;;;20.17;;
49998;SDS011;68071;45.062;7.356;2024-01-15T12:23:57;23.27;;;20.92;;
49998;SDS011;68071;45.062;7.356;2024-01-15T12:27:02;22.58;;;20.23;;
49998;SDS011;68071;45.062;7.356;2024-01-15T12:30:06;24.83;;;22.25;;
49998;SDS011;68071;45.062;7.356;2024-01-15T12:33:11;23.48;;;19.52;;
49998;SDS011;68071;45.062;7.356;2024-01-15T12:36:14;23.30;;;20.90;;
49998;SDS011;68071;45.062;7.356;2024-01-15T12:39:24;26.20;;;23.45;;
49998;SDS011;68071;45.062;7.356;2024-01-15T12:42:28;24.75;;;22.17;;
49998;SDS011;68071;45.062;7.356;2024-01-15T12:45:32;25.38;;;22.67;;
49998;SDS011;68071;45.062;7.356;2024-01-15T12:48:37;25.65;;;23.08;;
49998;SDS011;68071;45.062;7.356;2024-01-15T12:51:40;27.20;;;24.38;;
49998;SDS011;68071;45.062;7.356;2024-01-15T12:54:44;26.80;;;24.10;;
49998;SDS011;68071;45.062;7.356;2024-01-15T12:57:48;26.40;;;23.80;;
49998;SDS011;68071;45.062;7.356;2024-01-15T13:00:55;25.77;;;23.20;;
49998;SDS011;68071;45.062;7.356;2024-01-15T13:04:00;25.13;;;22.52;;
49998;SDS011;68071;45.062;7.356;2024-01-15T13:07:04;28.33;;;25.42;;
49998;SDS011;68071;45.062;7.356;2024-01-15T13:10:09;25.85;;;23.20;;
49998;SDS011;68071;45.062;7.356;2024-01-15T13:13:12;26.30;;;23.65;;
49998;SDS011;68071;45.062;7.356;2024-01-15T13:16:17;27.33;;;24.40;;
49998;SDS011;68071;45.062;7.356;2024-01-15T13:19:21;27.30;;;24.58;;
49998;SDS011;68071;45.062;7.356;2024-01-15T13:22:25;27.75;;;25.05;;
49998;SDS011;68071;45.062;7.356;2024-01-15T13:25:35;29.10;;;26.10;;
49998;SDS011;68071;45.062;7.356;2024-01-15T13:28:41;26.42;;;23.80;;
49998;SDS011;68071;45.062;7.356;2024-01-15T13:31:45;29.13;;;25.45;;
49998;SDS011;68071;45.062;7.356;2024-01-15T13:34:50;27.55;;;24.65;;
49998;SDS011;68071;45.062;7.356;2024-01-15T13:37:54;28.45;;;25.67;;
49998;SDS011;68071;45.062;7.356;2024-01-15T13:40:58;30.35;;;27.20;;
49998;SDS011;68071;45.062;7.356;2024-01-15T13:44:02;28.83;;;25.83;;
49998;SDS011;68071;45.062;7.356;2024-01-15T13:47:05;28.63;;;25.85;;
49998;SDS011;68071;45.062;7.356;2024-01-15T13:50:09;31.17;;;27.98;;
49998;SDS011;68071;45.062;7.356;2024-01-15T13:53:14;32.30;;;28.85;;
49998;SDS011;68071;45.062;7.356;2024-01-15T13:56:17;31.20;;;27.75;;
49998;SDS011;68071;45.062;7.356;2024-01-15T13:59:22;31.52;;;28.33;;
49998;SDS011;68071;45.062;7.356;2024-01-15T14:02:26;31.02;;;27.92;;
49998;SDS011;68071;45.062;7.356;2024-01-15T14:05:30;32.15;;;28.75;;
49998;SDS011;68071;45.062;7.356;2024-01-15T14:08:34;32.10;;;28.83;;
49998;SDS011;68071;45.062;7.356;2024-01-15T14:11:40;32.13;;;28.95;;
49998;SDS011;68071;45.062;7.356;2024-01-15T14:14:44;31.90;;;28.60;;
49998;SDS011;68071;45.062;7.356;2024-01-15T14:17:48;30.85;;;27.63;;
49998;SDS011;68071;45.062;7.356;2024-01-15T14:20:51;31.52;;;28.42;;
49998;SDS011;68071;45.062;7.356;2024-01-15T14:23:57;31.58;;;28.48;;
49998;SDS011;68071;45.062;7.356;2024-01-15T14:27:01;30.80;;;27.55;;
49998;SDS011;68071;45.062;7.356;2024-01-15T14:30:05;30.30;;;27.30;;
49998;SDS011;68071;45.062;7.356;2024-01-15T14:33:10;29.50;;;26.63;;
49998;SDS011;68071;45.062;7.356;2024-01-15T14:36:14;28.65;;;25.55;;
49998;SDS011;68071;45.062;7.356;2024-01-15T14:39:19;28.87;;;25.97;;
49998;SDS011;68071;45.062;7.356;2024-01-15T14:42:23;29.55;;;26.67;;
49998;SDS011;68071;45.062;7.356;2024-01-15T14:45:27;28.27;;;25.35;;
49998;SDS011;68071;45.062;7.356;2024-01-15T14:48:32;30.02;;;26.92;;
49998;SDS011;68071;45.062;7.356;2024-01-15T14:51:36;30.75;;;27.63;;
49998;SDS011;68071;45.062;7.356;2024-01-15T14:54:39;32.00;;;28.58;;
49998;SDS011;68071;45.062;7.356;2024-01-15T14:57:45;31.38;;;28.17;;
49998;SDS011;68071;45.062;7.356;2024-01-15T15:00:49;30.35;;;27.25;;
49998;SDS011;68071;45.062;7.356;2024-01-15T15:03:53;28.70;;;25.90;;
49998;SDS011;68071;45.062;7.356;2024-01-15T15:06:57;30.80;;;27.50;;
49998;SDS011;68071;45.062;7.356;2024-01-15T15:10:01;29.65;;;26.27;;
49998;SDS011;68071;45.062;7.356;2024-01-15T15:13:09;28.77;;;25.77;;
49998;SDS011;68071;45.062;7.356;2024-01-15T15:16:13;28.45;;;25.45;;
49998;SDS011;68071;45.062;7.356;2024-01-15T15:19:17;26.85;;;24.17;;
49998;SDS011;68071;45.062;7.356;2024-01-15T15:22:22;30.95;;;27.77;;
49998;SDS011;68071;45.062;7.356;2024-01-15T15:25:26;29.40;;;26.35;;
49998;SDS011;68071;45.062;7.356;2024-01-15T15:28:31;28.67;;;25.77;;
49998;SDS011;68071;45.062;7.356;2024-01-15T15:31:40;27.98;;;25.25;;
49998;SDS011;68071;45.062;7.356;2024-01-15T15:34:45;30.50;;;27.55;;
49998;SDS011;68071;45.062;7.356;2024-01-15T15:37:58;31.70;;;28.48;;
49998;SDS011;68071;45.062;7.356;2024-01-15T15:41:02;30.98;;;27.75;;
49998;SDS011;68071;45.062;7.356;2024-01-15T15:44:07;32.03;;;28.73;;
49998;SDS011;68071;45.062;7.356;2024-01-15T15:47:16;34.88;;;31.27;;
49998;SDS011;68071;45.062;7.356;2024-01-15T15:50:23;26.45;;;18.25;;
49998;SDS011;68071;45.062;7.356;2024-01-15T15:53:26;32.25;;;29.15;;
49998;SDS011;68071;45.062;7.356;2024-01-15T15:56:32;34.17;;;30.80;;
49998;SDS011;68071;45.062;7.356;2024-01-15T15:59:42;23.52;;;16.23;;
49998;SDS011;68071;45.062;7.356;2024-01-15T16:02:46;23.85;;;16.88;;
49998;SDS011;68071;45.062;7.356;2024-01-15T16:05:50;33.72;;;30.13;;
49998;SDS011;68071;45.062;7.356;2024-01-15T16:08:53;39.33;;;35.05;;
49998;SDS011;68071;45.062;7.356;2024-01-15T16:11:57;27.73;;;16.65;;
49998;SDS011;68071;45.062;7.356;2024-01-15T16:15:02;31.23;;;23.13;;
49998;SDS011;68071;45.062;7.356;2024-01-15T16:18:12;22.08;;;13.95;;
49998;SDS011;68071;45.062;7.356;2024-01-15T16:21:24;28.33;;;19.40;;
49998;SDS011;68071;45.062;7.356;2024-01-15T16:24:41;27.30;;;16.77;;
49998;SDS011;68071;45.062;7.356;2024-01-15T16:27:49;28.80;;;20.05;;
49998;SDS011;68071;45.062;7.356;2024-01-15T16:31:00;28.45;;;25.63;;
49998;SDS011;68071;45.062;7.356;2024-01-15T16:34:08;2.45;;;1.42;;
49998;SDS011;68071;45.062;7.356;2024-01-15T16:37:12;3.55;;;3.20;;
49998;SDS011;68071;45.062;7.356;2024-01-15T16:40:16;0.20;;;0.10;;
49998;SDS011;68071;45.062;7.356;2024-01-15T16:43:21;0.38;;;0.15;;
49998;SDS011;68071;45.062;7.356;2024-01-15T16:46:25;0.40;;;0.17;;
49998;SDS011;68071;45.062;7.356;2024-01-15T16:49:30;0.75;;;0.20;;
49998;SDS011;68071;45.062;7.356;2024-01-15T16:52:34;0.73;;;0.20;;
49998;SDS011;68071;45.062;7.356;2024-01-15T16:55:38;0.20;;;0.03;;
49998;SDS011;68071;45.062;7.356;2024-01-15T16:58:43;0.20;;;0.10;;
49998;SDS011;68071;45.062;7.356;2024-01-15T17:01:47;0.10;;;0.10;;
49998;SDS011;68071;45.062;7.356;2024-01-15T17:04:51;0.20;;;0.15;;
49998;SDS011;68071;45.062;7.356;2024-01-15T17:07:54;0.20;;;0.10;;
49998;SDS011;68071;45.062;7.356;2024-01-15T17:10:58;0.35;;;0.20;;
49998;SDS011;68071;45.062;7.356;2024-01-15T17:14:02;0.10;;;0.10;;
49998;SDS011;68071;45.062;7.356;2024-01-15T17:17:06;0.30;;;0.10;;
49998;SDS011;68071;45.062;7.356;2024-01-15T17:20:10;0.20;;;0.15;;
49998;SDS011;68071;45.062;7.356;2024-01-15T17:23:15;0.40;;;0.20;;
49998;SDS011;68071;45.062;7.356;2024-01-15T17:26:19;0.10;;;0.10;;
49998;SDS011;68071;45.062;7.356;2024-01-15T17:29:23;0.25;;;0.10;;
49998;SDS011;68071;45.062;7.356;2024-01-15T17:32:27;0.20;;;0.10;;
49998;SDS011;68071;45.062;7.356;2024-01-15T17:35:31;0.10;;;0.10;;
49998;SDS011;68071;45.062;7.356;2024-01-15T17:38:35;0.17;;;0.10;;
49998;SDS011;68071;45.062;7.356;2024-01-15T17:41:39;0.10;;;0.10;;
49998;SDS011;68071;45.062;7.356;2024-01-15T17:44:43;0.10;;;0.10;;
49998;SDS011;68071;45.062;7.356;2024-01-15T17:47:47;0.00;;;0.00;;
49998;SDS011;68071;45.062;7.356;2024-01-15T17:50:52;0.38;;;0.20;;
49998;SDS011;68071;45.062;7.356;2024-01-15T17:53:56;0.10;;;0.10;;
49998;SDS011;68071;45.062;7.356;2024-01-15T17:57:00;0.57;;;0.20;;
49998;SDS011;68071;45.062;7.356;2024-01-15T18:00:04;0.70;;;0.20;;
49998;SDS011;68071;45.062;7.356;2024-01-15T18:03:11;0.57;;;0.20;;
49998;SDS011;68071;45.062;7.356;2024-01-15T18:06:15;0.10;;;0.10;;
49998;SDS011;68071;45.062;7.356;2024-01-15T18:09:19;0.10;;;0.10;;
49998;SDS011;68071;45.062;7.356;2024-01-15T18:12:26;0.10;;;0.10;;
49998;SDS011;68071;45.062;7.356;2024-01-15T18:15:30;0.73;;;0.10;;
49998;SDS011;68071;45.062;7.356;2024-01-15T18:18:34;0.43;;;0.10;;
49998;SDS011;68071;45.062;7.356;2024-01-15T18:21:39;0.80;;;0.20;;
49998;SDS011;68071;45.062;7.356;2024-01-15T18:24:43;0.13;;;0.10;;
49998;SDS011;68071;45.062;7.356;2024-01-15T18:27:47;0.20;;;0.10;;
49998;SDS011;68071;45.062;7.356;2024-01-15T18:30:51;1.08;;;0.38;;